Lively, VA (22507)

9:11 AM EDT on May 27, 2015 (GMT -0400)
Drum Point | | Change Station
CLOSE
Current Station
Personal Weather Station
Location: Lancaster, VA
Elevation: 30 ft
Nearby Weather Stations

Elev 30 ft 37.73 °N, 76.51 °W | Updated 5 seconds ago

Mostly Cloudy
Mostly Cloudy
77.1 °F
Feels Like 79 °F
N
3.0
Wind Variable Wind from South
Gusts 8.0 mph

Today
High -- | Low -- °F
--% Chance of Precip.
Yesterday
High -- | Low -- °F
Precip. -- in
5:48 AM 8:18 PM
Waxing Gibbous, 67% visible
Pressure 30.21 in
Visibility 10.0 miles
Clouds Scattered Clouds 1400 ft
Heat Index 79 °F
Dew Point 72 °F
Humidity 84%
Rainfall 0.00 in
Snow Depth Not available.
UV 3 out of 12
Pollen 7.50 out of 12
Air Quality Not available.
Flu Activity No Activity
METAR KXSA 271255Z AUTO 18005KT 10SM SCT014 25/18 A3021 RMK AO2 T02510183

More Conditions Fewer Conditions

Pressure 30.21 in
Visibility 10.0 miles
Clouds Scattered Clouds 1400 ft
Heat Index 79 °F
Dew Point 72 °F
Humidity 84%
Rainfall 0.00 in
Snow Depth Not available.
UV 3 out of 12
Pollen 7.50 out of 12
Air Quality Not available.
Flu Activity No Activity
METAR KXSA 271255Z AUTO 18005KT 10SM SCT014 25/18 A3021 RMK AO2 T02510183

More Conditions Fewer Conditions

10-Day Weather Forecast

Almanac

Astronomy

May. 27, 2015 Rise Set
Actual Time
Civil Twilight
Nautical Twilight
Astronomical Twilight
Moon
Length of Visible Light
Length of Day
Tomorrow will be .
, % of the Moon is Illuminated

Today's Extremes

State Highs State Lows

Community

WunderPhotos

Upload Photos

1,824,664 photos uploaded!

WunderBlogs® & News

Nearby

Air Quality

  Air Quality AQ Index Pollutant
Not available.

Snow Depth

Station Depth Elevation

Earthquake Activity

City Distance Mag. Time & Date
Minimum magnitude displayed is 2.5.

Coastal Water Temperatures

Place Temperature

Stations

Nearby Weather Stations

Station Location Temp. Windchill Dew Point Humidity Wind Precip. Elev Updated Type